Time,TemperatureF,DewpointF,PressureIn,WindDirection,WindDirectionDegrees,WindSpeedMPH,WindSpeedGustMPH,Humidity,HourlyPrecipIn,Conditions,Clouds,dailyrainin,SolarRadiationWatts/m^2,SoftwareType,DateUTC
2013-02-03 00:08:00,40.4,35.0,30.20,SW,224,2.0,5.0,80,0.00,,,0.00,0,weatherlink.com 1.10,2013-02-03 06:08:00,
2013-02-03 00:23:00,39.8,35.0,30.19,SW,224,3.0,4.0,82,0.00,,,0.00,0,weatherlink.com 1.10,2013-02-03 06:23:00,
2013-02-03 00:38:00,39.5,35.0,30.19,SW,224,4.0,7.0,83,0.00,,,0.00,0,weatherlink.com 1.10,2013-02-03 06:38:00,
2013-02-03 00:54:00,39.3,35.0,30.19,SW,230,3.0,6.0,83,0.00,,,0.00,0,weatherlink.com 1.10,2013-02-03 06:54:00,
2013-02-03 01:08:00,38.9,35.0,30.19,SW,229,2.0,6.0,84,0.00,,,0.00,0,weatherlink.com 1.10,2013-02-03 07:08:00,
2013-02-03 01:23:00,39.0,35.0,30.19,SW,228,2.0,6.0,84,0.00,,,0.00,0,weatherlink.com 1.10,2013-02-03 07:23:00,
2013-02-03 01:38:00,39.0,34.0,30.18,SW,228,2.0,6.0,83,0.00,,,0.00,0,weatherlink.com 1.10,2013-02-03 07:38:00,
2013-02-03 01:53:00,38.9,35.0,30.18,SW,228,3.0,5.0,84,0.00,,,0.00,0,weatherlink.com 1.10,2013-02-03 07:53:00,
2013-02-03 02:08:00,39.1,34.0,30.17,SW,226,2.0,5.0,83,0.00,,,0.00,0,weatherlink.com 1.10,2013-02-03 08:08:00,
2013-02-03 02:24:00,39.0,34.0,30.17,SW,222,4.0,6.0,83,0.00,,,0.00,0,weatherlink.com 1.10,2013-02-03 08:24:00,
2013-02-03 02:39:00,38.9,34.0,30.16,SW,216,3.0,5.0,83,0.00,,,0.00,0,weatherlink.com 1.10,2013-02-03 08:39:00,
2013-02-03 02:53:00,38.8,34.0,30.16,SW,216,4.0,5.0,83,0.00,,,0.00,0,weatherlink.com 1.10,2013-02-03 08:53:00,
2013-02-03 03:09:00,38.7,34.0,30.15,SW,219,3.0,6.0,83,0.00,,,0.00,0,weatherlink.com 1.10,2013-02-03 09:09:00,
2013-02-03 03:24:00,38.5,34.0,30.15,SW,219,4.0,6.0,83,0.00,,,0.00,0,weatherlink.com 1.10,2013-02-03 09:24:00,
2013-02-03 03:39:00,38.6,34.0,30.15,SW,220,4.0,4.0,82,0.00,,,0.00,0,weatherlink.com 1.10,2013-02-03 09:39:00,
2013-02-03 03:54:00,39.2,34.0,30.14,SW,221,1.0,5.0,80,0.00,,,0.00,0,weatherlink.com 1.10,2013-02-03 09:54:00,
2013-02-03 04:09:00,39.3,33.0,30.14,SW,221,2.0,5.0,78,0.00,,,0.00,0,weatherlink.com 1.10,2013-02-03 10:09:00,
2013-02-03 04:24:00,39.6,33.0,30.14,SW,217,2.0,6.0,77,0.00,,,0.00,0,weatherlink.com 1.10,2013-02-03 10:24:00,
2013-02-03 04:39:00,39.6,33.0,30.14,SW,219,2.0,6.0,77,0.00,,,0.00,0,weatherlink.com 1.10,2013-02-03 10:39:00,
2013-02-03 04:54:00,39.8,33.0,30.14,SW,224,1.0,5.0,76,0.00,,,0.00,0,weatherlink.com 1.10,2013-02-03 10:54:00,
2013-02-03 05:09:00,40.7,33.0,30.15,WNW,286,3.0,5.0,73,0.00,,,0.00,0,weatherlink.com 1.10,2013-02-03 11:09:00,
2013-02-03 05:24:00,42.3,33.0,30.16,West,271,4.0,8.0,70,0.00,,,0.00,0,weatherlink.com 1.10,2013-02-03 11:24:00,
2013-02-03 05:39:00,43.0,33.0,30.15,WNW,297,5.0,11.0,68,0.00,,,0.00,0,weatherlink.com 1.10,2013-02-03 11:39:00,
2013-02-03 05:54:00,42.6,33.0,30.16,NW,306,4.0,10.0,69,0.00,,,0.00,0,weatherlink.com 1.10,2013-02-03 11:54:00,
2013-02-03 06:09:00,42.0,32.0,30.16,WNW,302,6.0,9.0,69,0.00,,,0.00,0,weatherlink.com 1.10,2013-02-03 12:09:00,
2013-02-03 06:24:00,41.6,32.0,30.17,WNW,301,5.0,8.0,70,0.00,,,0.00,0,weatherlink.com 1.10,2013-02-03 12:24:00,
2013-02-03 06:39:00,41.3,33.0,30.17,WNW,292,2.0,7.0,71,0.00,,,0.00,0,weatherlink.com 1.10,2013-02-03 12:39:00,
2013-02-03 06:53:00,40.9,32.0,30.18,WNW,293,2.0,5.0,71,0.00,,,0.00,0,weatherlink.com 1.10,2013-02-03 12:53:00,
2013-02-03 07:10:00,40.5,32.0,30.18,WNW,283,1.0,5.0,72,0.00,,,0.00,11,weatherlink.com 1.10,2013-02-03 13:10:00,
2013-02-03 07:25:00,40.4,32.0,30.18,WNW,284,1.0,5.0,72,0.00,,,0.00,19,weatherlink.com 1.10,2013-02-03 13:25:00,
2013-02-03 07:40:00,40.8,32.0,30.18,NW,309,2.0,3.0,72,0.00,,,0.00,53,weatherlink.com 1.10,2013-02-03 13:40:00,
2013-02-03 07:55:00,41.6,33.0,30.19,NW,310,2.0,4.0,72,0.00,,,0.00,114,weatherlink.com 1.10,2013-02-03 13:55:00,
2013-02-03 08:10:00,42.5,33.0,30.19,WNW,298,3.0,6.0,70,0.00,,,0.00,172,weatherlink.com 1.10,2013-02-03 14:10:00,
2013-02-03 08:25:00,43.7,34.0,30.20,WNW,298,4.0,7.0,68,0.00,,,0.00,230,weatherlink.com 1.10,2013-02-03 14:25:00,
2013-02-03 08:40:00,44.9,34.0,30.20,WNW,303,4.0,8.0,67,0.00,,,0.00,283,weatherlink.com 1.10,2013-02-03 14:40:00,
2013-02-03 08:56:00,45.8,34.0,30.20,WNW,291,6.0,12.0,64,0.00,,,0.00,334,weatherlink.com 1.10,2013-02-03 14:56:00,
2013-02-03 09:12:00,46.7,34.0,30.20,WNW,285,5.0,14.0,62,0.00,,,0.00,378,weatherlink.com 1.10,2013-02-03 15:12:00,
2013-02-03 09:26:00,47.6,34.0,30.20,NW,305,7.0,14.0,60,0.00,,,0.00,422,weatherlink.com 1.10,2013-02-03 15:26:00,
2013-02-03 09:41:00,49.0,33.0,30.20,NNW,330,7.0,11.0,55,0.00,,,0.00,461,weatherlink.com 1.10,2013-02-03 15:41:00,
2013-02-03 09:58:00,49.7,33.0,30.21,WNW,294,10.0,16.0,53,0.00,,,0.00,499,weatherlink.com 1.10,2013-02-03 15:58:00,
2013-02-03 10:12:00,49.7,32.0,30.22,WNW,284,15.0,15.0,51,0.00,,,0.00,529,weatherlink.com 1.10,2013-02-03 16:12:00,
2013-02-03 10:27:00,49.7,32.0,30.22,NNW,328,5.0,19.0,50,0.00,,,0.00,554,weatherlink.com 1.10,2013-02-03 16:27:00,
2013-02-03 10:43:00,50.3,33.0,30.21,WNW,297,6.0,17.0,51,0.00,,,0.00,585,weatherlink.com 1.10,2013-02-03 16:43:00,
2013-02-03 10:57:00,50.4,34.0,30.20,WNW,284,9.0,14.0,53,0.00,,,0.00,601,weatherlink.com 1.10,2013-02-03 16:57:00,
2013-02-03 11:12:00,51.1,34.0,30.20,WSW,253,9.0,14.0,52,0.00,,,0.00,619,weatherlink.com 1.10,2013-02-03 17:12:00,
2013-02-03 11:28:00,51.9,35.0,30.20,WNW,286,7.0,12.0,53,0.00,,,0.00,631,weatherlink.com 1.10,2013-02-03 17:28:00,
2013-02-03 11:43:00,51.9,31.0,30.19,WNW,284,10.0,14.0,45,0.00,,,0.00,643,weatherlink.com 1.10,2013-02-03 17:43:00,
2013-02-03 11:58:00,52.1,32.0,30.19,West,264,15.0,20.0,46,0.00,,,0.00,650,weatherlink.com 1.10,2013-02-03 17:58:00,
2013-02-03 12:14:00,52.4,30.0,30.19,NW,316,9.0,15.0,42,0.00,,,0.00,650,weatherlink.com 1.10,2013-02-03 18:14:00,
2013-02-03 12:30:00,52.3,29.0,30.18,NW,322,8.0,19.0,41,0.00,,,0.00,647,weatherlink.com 1.10,2013-02-03 18:30:00,
2013-02-03 12:45:00,52.7,32.0,30.18,NW,314,9.0,17.0,46,0.00,,,0.00,633,weatherlink.com 1.10,2013-02-03 18:45:00,
2013-02-03 13:00:00,52.6,30.0,30.17,NW,321,10.0,18.0,42,0.00,,,0.00,626,weatherlink.com 1.10,2013-02-03 19:00:00,
2013-02-03 13:15:00,52.8,29.0,30.16,NW,322,11.0,20.0,40,0.00,,,0.00,612,weatherlink.com 1.10,2013-02-03 19:15:00,
2013-02-03 13:30:00,53.1,30.0,30.16,WNW,295,5.0,18.0,42,0.00,,,0.00,589,weatherlink.com 1.10,2013-02-03 19:30:00,
2013-02-03 13:45:00,53.1,30.0,30.16,NNW,328,9.0,18.0,41,0.00,,,0.00,570,weatherlink.com 1.10,2013-02-03 19:45:00,
2013-02-03 14:01:00,53.2,30.0,30.16,NW,321,5.0,21.0,42,0.00,,,0.00,545,weatherlink.com 1.10,2013-02-03 20:01:00,
2013-02-03 14:15:00,52.6,29.0,30.17,NW,317,6.0,17.0,41,0.00,,,0.00,522,weatherlink.com 1.10,2013-02-03 20:15:00,
2013-02-03 14:32:00,52.6,29.0,30.17,NW,305,11.0,19.0,40,0.00,,,0.00,476,weatherlink.com 1.10,2013-02-03 20:32:00,
2013-02-03 14:45:00,52.4,29.0,30.17,NNW,347,6.0,19.0,40,0.00,,,0.00,418,weatherlink.com 1.10,2013-02-03 20:45:00,
2013-02-03 15:02:00,52.3,28.0,30.17,WNW,293,10.0,18.0,40,0.00,,,0.00,332,weatherlink.com 1.10,2013-02-03 21:02:00,
2013-02-03 15:16:00,52.5,29.0,30.16,North,352,4.0,16.0,40,0.00,,,0.00,330,weatherlink.com 1.10,2013-02-03 21:16:00,
2013-02-03 15:31:00,52.9,28.0,30.16,NW,321,9.0,16.0,38,0.00,,,0.00,320,weatherlink.com 1.10,2013-02-03 21:31:00,
2013-02-03 16:03:00,52.8,27.0,30.16,WNW,289,5.0,16.0,37,0.00,,,0.00,225,weatherlink.com 1.10,2013-02-03 22:03:00,
2013-02-03 16:18:00,52.3,27.0,30.16,NW,318,8.0,18.0,37,0.00,,,0.00,174,weatherlink.com 1.10,2013-02-03 22:18:00,
2013-02-03 16:33:00,52.1,26.0,30.16,NW,323,10.0,15.0,37,0.00,,,0.00,109,weatherlink.com 1.10,2013-02-03 22:33:00,
2013-02-03 16:48:00,51.5,26.0,30.16,WNW,295,4.0,11.0,38,0.00,,,0.00,51,weatherlink.com 1.10,2013-02-03 22:48:00,
2013-02-03 17:03:00,50.7,26.0,30.16,NW,317,3.0,11.0,38,0.00,,,0.00,23,weatherlink.com 1.10,2013-02-03 23:03:00,
2013-02-03 17:18:00,49.9,26.0,30.16,NNE,16,3.0,7.0,39,0.00,,,0.00,14,weatherlink.com 1.10,2013-02-03 23:18:00,
2013-02-03 17:34:00,49.4,26.0,30.15,WNW,303,1.0,7.0,41,0.00,,,0.00,0,weatherlink.com 1.10,2013-02-03 23:34:00,
2013-02-03 17:50:00,48.7,26.0,30.15,NNW,343,2.0,6.0,41,0.00,,,0.00,0,weatherlink.com 1.10,2013-02-03 23:50:00,
2013-02-03 18:05:00,47.9,26.0,30.15,NW,307,2.0,4.0,42,0.00,,,0.00,0,weatherlink.com 1.10,2013-02-04 00:05:00,
2013-02-03 18:20:00,47.4,26.0,30.15,NW,306,0.0,3.0,43,0.00,,,0.00,0,weatherlink.com 1.10,2013-02-04 00:20:00,
2013-02-03 18:35:00,46.0,26.0,30.14,NW,306,0.0,2.0,45,0.00,,,0.00,0,weatherlink.com 1.10,2013-02-04 00:35:00,
2013-02-03 18:50:00,44.7,26.0,30.15,NW,306,0.0,0.0,49,0.00,,,0.00,0,weatherlink.com 1.10,2013-02-04 00:50:00,
2013-02-03 19:05:00,43.0,26.0,30.15,NW,306,0.0,0.0,52,0.00,,,0.00,0,weatherlink.com 1.10,2013-02-04 01:05:00,
2013-02-03 19:20:00,42.3,27.0,30.16,NW,306,0.0,0.0,55,0.00,,,0.00,0,weatherlink.com 1.10,2013-02-04 01:20:00,
2013-02-03 19:36:00,41.1,26.0,30.15,NW,306,0.0,0.0,56,0.00,,,0.00,0,weatherlink.com 1.10,2013-02-04 01:36:00,
2013-02-03 19:51:00,40.0,27.0,30.16,NW,306,0.0,0.0,59,0.00,,,0.00,0,weatherlink.com 1.10,2013-02-04 01:51:00,
2013-02-03 20:07:00,39.1,27.0,30.16,NW,306,0.0,0.0,61,0.00,,,0.00,0,weatherlink.com 1.10,2013-02-04 02:07:00,
2013-02-03 20:22:00,38.9,27.0,30.16,NW,306,0.0,0.0,62,0.00,,,0.00,0,weatherlink.com 1.10,2013-02-04 02:22:00,
2013-02-03 20:36:00,37.9,27.0,30.17,NW,306,0.0,0.0,64,0.00,,,0.00,0,weatherlink.com 1.10,2013-02-04 02:36:00,
2013-02-03 20:52:00,37.9,29.0,30.16,NNE,27,2.0,3.0,71,0.00,,,0.00,0,weatherlink.com 1.10,2013-02-04 02:52:00,
2013-02-03 21:07:00,36.5,28.0,30.15,NE,35,0.0,1.0,72,0.00,,,0.00,0,weatherlink.com 1.10,2013-02-04 03:07:00,
2013-02-03 21:22:00,36.0,28.0,30.15,NE,35,0.0,1.0,72,0.00,,,0.00,0,weatherlink.com 1.10,2013-02-04 03:22:00,
2013-02-03 21:37:00,35.8,28.0,30.15,NE,35,0.0,0.0,73,0.00,,,0.00,0,weatherlink.com 1.10,2013-02-04 03:37:00,
2013-02-03 21:52:00,36.4,29.0,30.15,NE,35,0.0,2.0,74,0.00,,,0.00,0,weatherlink.com 1.10,2013-02-04 03:52:00,
2013-02-03 22:08:00,36.4,29.0,30.16,NE,35,0.0,0.0,74,0.00,,,0.00,0,weatherlink.com 1.10,2013-02-04 04:08:00,
2013-02-03 22:23:00,36.7,29.0,30.15,NE,35,0.0,1.0,73,0.00,,,0.00,0,weatherlink.com 1.10,2013-02-04 04:23:00,
2013-02-03 22:38:00,36.5,29.0,30.14,NE,35,0.0,1.0,74,0.00,,,0.00,0,weatherlink.com 1.10,2013-02-04 04:38:00,
2013-02-03 22:53:00,36.4,29.0,30.14,NE,35,0.0,1.0,73,0.00,,,0.00,0,weatherlink.com 1.10,2013-02-04 04:53:00,
2013-02-03 23:08:00,36.9,29.0,30.13,NE,35,0.0,0.0,72,0.00,,,0.00,0,weatherlink.com 1.10,2013-02-04 05:08:00,
2013-02-03 23:23:00,36.5,30.0,30.12,NE,35,0.0,0.0,76,0.00,,,0.00,0,weatherlink.com 1.10,2013-02-04 05:23:00,
2013-02-03 23:38:00,36.6,30.0,30.11,NE,35,0.0,0.0,76,0.00,,,0.00,0,weatherlink.com 1.10,2013-02-04 05:38:00,
2013-02-03 23:53:00,36.1,30.0,30.11,NE,35,0.0,0.0,77,0.00,,,0.00,0,weatherlink.com 1.10,2013-02-04 05:53:00,